»·PEaware :: N5656Y KAVX-KSAN

N5656Y :: KAVX-KSAN

FLIGHT INFORMATION

Flight Status: Arrived
Operator: Privately registered:
United States
More flights under this callsign
Pilot: Anonymous 20359 (20359)
Aircraft: CESSNA 172 SKYHAWK
(C172)
More flights by this aircraft type
Origin: KAVX Catalina
United States
Destination: KSAN San Diego Intl-Lindbergh
United States
More flights between these airports :: More routes between these airports
Route: +SXC V208 OCN V23 MZB
File this flight plan on PilotEdge
Remarks: TEC route CSTP56
Altitude:
(Current/Filed)
5,000ft
Speed:
(Current/Filed)
120kts
Departed: 03-Oct-18 03:03 PM
Arrived: 03-Oct-18 04:02 PM
Distance/Time
Traveled:
74nm/0:59
Distance/Time
To Go:
Arrived

Flight Plot

Page will automatically refresh every two minutes.


Map Options




Map Legend


Flown Route
Filed Route
Departure Airport
Arrival Airport
Navaid (VOR, NDB)
Fix

Horizontal Profiles

Position Reports

Time Latitude Longitude Heading Altitude Ground
Speed
03-Oct-18 14:54 33.403292 -118.415954 44 1551ft 0kts
03-Oct-18 14:55 33.403292 -118.415954 44 1551ft 0kts
03-Oct-18 14:56 33.403292 -118.415954 44 1551ft 0kts
03-Oct-18 14:57 33.403292 -118.415954 44 1551ft 0kts
03-Oct-18 14:58 33.403292 -118.415954 44 1551ft 0kts
03-Oct-18 14:59 33.403292 -118.415954 44 1551ft 0kts
03-Oct-18 15:00 33.403292 -118.415954 44 1551ft 0kts
03-Oct-18 15:01 33.403292 -118.415954 44 1551ft 0kts
03-Oct-18 15:02 33.403292 -118.415954 44 1551ft 0kts
03-Oct-18 15:03 33.403303 -118.415941 43 1551ft 0kts
03-Oct-18 15:04 33.406485 -118.412563 53 1513ft 33kts
03-Oct-18 15:05 33.402366 -118.419768 230 1667ft 87kts
03-Oct-18 15:06 33.385236 -118.439131 186 2665ft 91kts
03-Oct-18 15:07 33.374784 -118.416684 90 3568ft 88kts
03-Oct-18 15:08 33.371666 -118.387740 93 4460ft 87kts
03-Oct-18 15:09 33.368134 -118.359310 94 5169ft 104kts
03-Oct-18 15:10 33.362549 -118.317689 96 5133ft 135kts
03-Oct-18 15:11 33.356639 -118.272638 96 5129ft 138kts
03-Oct-18 15:12 33.350700 -118.227215 97 5125ft 139kts
03-Oct-18 15:13 33.344662 -118.181185 97 5095ft 140kts
03-Oct-18 15:14 33.337417 -118.135756 117 5090ft 139kts
03-Oct-18 15:15 33.323885 -118.094460 131 5081ft 135kts
03-Oct-18 15:16 33.321047 -118.050292 92 5091ft 134kts
03-Oct-18 15:17 33.320874 -118.006514 82 5084ft 138kts
03-Oct-18 15:18 33.325158 -117.961212 98 5079ft 139kts
03-Oct-18 15:19 33.314788 -117.917619 107 5077ft 138kts
03-Oct-18 15:20 33.305529 -117.873522 100 5073ft 138kts
03-Oct-18 15:21 33.296908 -117.830123 100 5068ft 136kts
03-Oct-18 15:22 33.292500 -117.785000 101 5068ft 136kts
03-Oct-18 15:23 33.286948 -117.740296 102 5069ft 136kts
03-Oct-18 15:24 33.281030 -117.695604 102 5069ft 136kts
03-Oct-18 15:25 33.275020 -117.650948 102 5069ft 136kts
03-Oct-18 15:26 33.268972 -117.606298 102 5069ft 136kts
03-Oct-18 15:27 33.262889 -117.561502 101 5067ft 137kts
03-Oct-18 15:28 33.256756 -117.516424 100 5064ft 138kts
03-Oct-18 15:29 33.250558 -117.471048 99 5061ft 138kts
03-Oct-18 15:30 33.244028 -117.425738 111 5052ft 138kts
03-Oct-18 15:31 33.212898 -117.403939 161 5055ft 132kts
03-Oct-18 15:32 33.178440 -117.389157 165 5054ft 130kts
03-Oct-18 15:33 33.144222 -117.375366 165 5053ft 129kts
03-Oct-18 15:34 33.110834 -117.361339 165 5051ft 126kts
03-Oct-18 15:35 33.078251 -117.347636 165 5050ft 125kts
03-Oct-18 15:36 33.045679 -117.333932 166 5049ft 124kts
03-Oct-18 15:37 33.013073 -117.320210 166 5050ft 124kts
03-Oct-18 15:38 32.980597 -117.306574 166 5050ft 123kts
03-Oct-18 15:39 32.948286 -117.293010 166 5051ft 123kts
03-Oct-18 15:40 32.916216 -117.279554 166 5054ft 122kts
03-Oct-18 15:41 32.884365 -117.266194 166 5059ft 122kts
03-Oct-18 15:42 32.852309 -117.252758 166 5061ft 122kts
03-Oct-18 15:43 32.820242 -117.239347 166 5063ft 122kts
03-Oct-18 15:44 32.810187 -117.199517 96 5065ft 138kts
03-Oct-18 15:45 32.804892 -117.154499 106 5067ft 137kts
03-Oct-18 15:46 32.797022 -117.109895 105 5069ft 138kts
03-Oct-18 15:47 32.789620 -117.064795 105 5066ft 138kts
03-Oct-18 15:48 32.782277 -117.019842 105 5062ft 138kts
03-Oct-18 15:49 32.774986 -116.975162 105 5059ft 138kts
03-Oct-18 15:50 32.767657 -116.930346 105 5056ft 138kts
03-Oct-18 15:51 32.760273 -116.885564 105 5052ft 138kts
03-Oct-18 15:52 32.752870 -116.840847 104 5051ft 138kts
03-Oct-18 15:53 32.727382 -116.821852 195 5047ft 122kts
03-Oct-18 15:54 32.698584 -116.838386 247 5046ft 119kts
03-Oct-18 15:55 32.687743 -116.878527 252 4451ft 140kts
03-Oct-18 15:56 32.682508 -116.922684 251 3855ft 126kts
03-Oct-18 15:57 32.676060 -116.961981 275 3855ft 123kts
03-Oct-18 15:58 32.687125 -117.002595 293 3213ft 127kts
03-Oct-18 15:59 32.700995 -117.043920 280 2544ft 136kts
03-Oct-18 16:00 32.708760 -117.084759 281 1732ft 122kts
03-Oct-18 16:01 32.716853 -117.119986 282 1424ft 106kts
03-Oct-18 16:02 32.723005 -117.144336 279 945ft 73kts
03-Oct-18 16:03 32.728417 -117.169239 282 333ft 81kts
03-Oct-18 16:04 32.732876 -117.188190 255 16ft 25kts
03-Oct-18 16:05 32.732630 -117.188515 207 16ft 1kts
03-Oct-18 16:06 32.731008 -117.183379 105 14ft 27kts
03-Oct-18 16:07 32.728727 -117.178497 103 15ft 0kts
03-Oct-18 16:08 32.728727 -117.178497 103 15ft 0kts

Navigation Log

Ident Type
1. KAVX Airport
2. SXC Navaid
3. AVOLS Fix
4. PACIF Fix
5. HUBRD Fix
6. OCN Navaid
7. HURSI Fix
8. CARIF Fix
9. MZB Navaid
10. KSAN Airport